Time;durP1;ratioP1;P1;durP2;ratioP2;P2;SDS_P1;SDS_P2;PMS_P1;PMS_P2;Temp;Humidity;BMP_temperature;BMP_pressure;BME280_temperature;BME280_humidity;BME280_pressure;Samples;Min_cycle;Max_cycle;Signal;HPM_P1;HPM_P2
2023/09/26 00:01:26;;;;;;;4.43;2.30;;;;;;;12.96;nan;100066.72;5038003;28;20201;-78
2023/09/26 00:03:52;;;;;;;2.45;2.20;;;;;;;12.96;nan;100061.44;5033903;28;20984;-78
2023/09/26 00:06:19;;;;;;;2.90;2.27;;;;;;;12.97;nan;100082.44;5037348;28;20459;-78
2023/09/26 00:08:44;;;;;;;2.55;2.35;;;;;;;12.98;nan;100070.94;5038465;28;20774;-78
2023/09/26 00:11:09;;;;;;;2.53;2.13;;;;;;;12.98;nan;100070.09;5037180;28;20201;-78
2023/09/26 00:13:35;;;;;;;2.97;2.67;;;;;;;12.96;nan;100066.72;5036393;28;20194;-79
2023/09/26 00:16:00;;;;;;;7.27;2.20;;;;;;;12.95;nan;100063.25;5034626;28;20221;-79
2023/09/26 00:18:26;;;;;;;2.33;2.03;;;;;;;12.94;nan;100068.63;5035129;28;20221;-78
2023/09/26 00:20:51;;;;;;;2.30;2.13;;;;;;;12.90;nan;100065.34;5036479;28;20233;-78
2023/09/26 00:23:16;;;;;;;2.10;1.87;;;;;;;12.79;nan;100062.56;5040848;28;20702;-78
2023/09/26 00:25:44;;;;;;;1.83;1.70;;;;;;;12.66;nan;100066.94;5037815;28;20284;-78
2023/09/26 00:28:10;;;;;;;2.20;1.80;;;;;;;12.58;nan;100064.81;5018343;28;20638;-79
2023/09/26 00:30:35;;;;;;;1.67;1.57;;;;;;;12.56;nan;100062.28;5040815;28;20938;-78
2023/09/26 00:33:00;;;;;;;2.57;1.90;;;;;;;12.54;nan;100063.31;5019792;28;20203;-78
2023/09/26 00:35:26;;;;;;;2.67;1.90;;;;;;;12.48;nan;100066.38;5033074;28;20193;-78
2023/09/26 00:37:52;;;;;;;2.17;1.65;;;;;;;12.41;nan;100065.88;5021943;28;20202;-78
2023/09/26 00:40:22;;;;;;;1.83;1.73;;;;;;;12.39;nan;100073.91;5039779;28;20236;-78
2023/09/26 00:42:47;;;;;;;3.25;2.05;;;;;;;12.38;nan;100066.94;5040027;28;20200;-78
2023/09/26 00:45:16;;;;;;;2.67;2.00;;;;;;;12.38;nan;100064.28;5033521;28;20208;-78
2023/09/26 00:47:42;;;;;;;2.50;2.30;;;;;;;12.42;nan;100069.38;5020717;28;20453;-78
2023/09/26 00:50:11;;;;;;;2.85;2.28;;;;;;;12.45;nan;100072.66;5043265;28;20226;-78
2023/09/26 00:52:41;;;;;;;2.78;2.55;;;;;;;12.45;nan;100070.03;5039028;28;20228;-78
2023/09/26 00:55:07;;;;;;;2.80;2.40;;;;;;;12.42;nan;100067.56;5042784;28;20277;-78
2023/09/26 00:57:35;;;;;;;5.22;2.92;;;;;;;12.43;nan;100064.00;5020458;28;20205;-78
2023/09/26 01:00:02;;;;;;;2.70;2.50;;;;;;;12.42;nan;100062.31;5030634;28;20397;-78
2023/09/26 01:02:27;;;;;;;4.30;3.05;;;;;;;12.39;nan;100058.09;5022068;28;20673;-78
2023/09/26 01:04:53;;;;;;;2.87;2.23;;;;;;;12.37;nan;100062.63;5042928;28;20276;-78
2023/09/26 01:07:20;;;;;;;5.80;2.42;;;;;;;12.31;nan;100063.00;5016279;28;20562;-78
2023/09/26 01:09:46;;;;;;;4.05;3.50;;;;;;;12.29;nan;100064.91;5036490;28;20259;-78
2023/09/26 01:12:11;;;;;;;4.43;2.60;;;;;;;12.31;nan;100064.78;5042195;28;20205;-78
2023/09/26 01:14:37;;;;;;;3.23;2.20;;;;;;;12.33;nan;100062.91;5025490;28;20209;-78
2023/09/26 01:17:03;;;;;;;2.67;1.60;;;;;;;12.30;nan;100060.47;5040258;28;20611;-78
2023/09/26 01:19:29;;;;;;;2.58;1.60;;;;;;;12.20;nan;100057.56;5041748;28;20252;-79
2023/09/26 01:21:55;;;;;;;2.70;2.40;;;;;;;12.10;nan;100061.75;5022964;28;20228;-78
2023/09/26 01:24:20;;;;;;;3.13;2.70;;;;;;;12.01;nan;100060.50;5024880;28;20605;-79
2023/09/26 01:26:46;;;;;;;3.07;2.30;;;;;;;11.95;nan;100055.63;5037087;28;20198;-78
2023/09/26 01:29:15;;;;;;;2.20;2.00;;;;;;;11.92;nan;100059.28;5040107;28;20256;-79
2023/09/26 01:31:41;;;;;;;2.67;2.40;;;;;;;11.95;nan;100058.25;5024943;28;20201;-78
2023/09/26 01:34:07;;;;;;;2.93;2.03;;;;;;;11.98;nan;100057.22;5044445;28;20247;-78
2023/09/26 01:36:32;;;;;;;2.53;2.30;;;;;;;12.01;nan;100051.75;5027202;28;20813;-78
2023/09/26 01:38:58;;;;;;;2.03;1.93;;;;;;;12.04;nan;100057.66;5038356;28;21239;-78
2023/09/26 01:41:24;;;;;;;2.93;2.30;;;;;;;12.06;nan;100052.31;5020744;28;20702;-79
2023/09/26 01:43:51;;;;;;;3.13;2.92;;;;;;;12.09;nan;100052.97;5037086;28;20444;-78
2023/09/26 01:46:18;;;;;;;3.17;2.13;;;;;;;12.12;nan;100058.06;5041271;28;20356;-78
2023/09/26 01:48:44;;;;;;;3.78;2.97;;;;;;;12.11;nan;100053.72;5042049;28;20225;-78
2023/09/26 01:51:10;;;;;;;3.80;2.00;;;;;;;12.09;nan;100046.84;5042468;28;20240;-78
2023/09/26 01:53:35;;;;;;;2.50;2.30;;;;;;;12.04;nan;100052.41;5042498;28;20237;-78
2023/09/26 01:56:01;;;;;;;3.07;2.20;;;;;;;12.02;nan;100053.47;5038047;28;20193;-78
2023/09/26 01:58:27;;;;;;;2.22;2.03;;;;;;;11.99;nan;100054.50;5028116;28;20217;-78
2023/09/26 02:00:53;;;;;;;2.83;2.10;;;;;;;12.00;nan;100056.19;5023237;28;20210;-78
2023/09/26 02:03:19;;;;;;;7.73;2.23;;;;;;;11.99;nan;100054.50;5040601;28;20574;-79
2023/09/26 02:05:45;;;;;;;2.60;2.30;;;;;;;11.99;nan;100059.78;5040234;28;20194;-78
2023/09/26 02:08:11;;;;;;;4.00;2.70;;;;;;;11.99;nan;100059.78;5038550;28;20190;-78
2023/09/26 02:10:36;;;;;;;4.40;3.73;;;;;;;11.95;nan;100056.47;5035082;28;20272;-78
2023/09/26 02:13:02;;;;;;;3.10;2.47;;;;;;;11.92;nan;100050.56;5041740;28;20363;-78
2023/09/26 02:15:28;;;;;;;3.00;2.30;;;;;;;11.91;nan;100046.25;5015944;28;20281;-79
2023/09/26 02:17:53;;;;;;;3.83;2.87;;;;;;;11.92;nan;100055.81;5038333;28;20251;-78
2023/09/26 02:20:19;;;;;;;2.63;2.20;;;;;;;11.90;nan;100062.97;5036943;28;20241;-78
2023/09/26 02:22:50;;;;;;;2.97;2.70;;;;;;;11.86;nan;100054.41;5023531;28;20197;-78
2023/09/26 02:25:20;;;;;;;7.15;3.42;;;;;;;11.85;nan;100057.94;5039736;28;20201;-78
2023/09/26 02:27:46;;;;;;;2.40;2.20;;;;;;;11.87;nan;100056.09;5018176;28;20808;-78
2023/09/26 02:30:17;;;;;;;3.03;2.63;;;;;;;11.88;nan;100056.94;5037849;28;20271;-78
2023/09/26 02:32:43;;;;;;;3.58;2.30;;;;;;;11.90;nan;100049.78;5036725;28;20194;-78
2023/09/26 02:35:11;;;;;;;3.10;2.60;;;;;;;11.91;nan;100047.09;5017721;28;20544;-78
2023/09/26 02:37:38;;;;;;;2.80;2.45;;;;;;;11.90;nan;100052.44;5035871;28;20292;-78
2023/09/26 02:40:05;;;;;;;4.15;3.75;;;;;;;11.82;nan;100052.88;5037387;28;20213;-78
2023/09/26 02:42:35;;;;;;;2.97;2.33;;;;;;;11.73;nan;100054.28;5034291;28;20206;-79
2023/09/26 02:45:02;;;;;;;2.42;2.22;;;;;;;11.65;nan;100050.44;5042327;28;20190;-79
2023/09/26 02:47:28;;;;;;;2.22;2.03;;;;;;;11.54;nan;100051.09;5026649;28;20214;-79
2023/09/26 02:49:54;;;;;;;2.30;2.10;;;;;;;11.50;nan;100052.19;5029548;28;20433;-79
2023/09/26 02:52:21;;;;;;;3.17;2.40;;;;;;;11.50;nan;100053.06;5040912;28;20436;-78
2023/09/26 02:54:47;;;;;;;2.30;2.10;;;;;;;11.52;nan;100045.06;5044243;28;20229;-79
2023/09/26 02:57:13;;;;;;;2.50;2.30;;;;;;;11.53;nan;100046.78;5047406;28;20261;-81
2023/09/26 02:59:38;;;;;;;3.00;2.13;;;;;;;11.51;nan;100046.84;5030324;28;20727;-81
2023/09/26 03:02:03;;;;;;;2.93;2.37;;;;;;;11.48;nan;100043.56;5052951;28;20330;-81
2023/09/26 03:04:33;;;;;;;9.37;5.50;;;;;;;11.42;nan;100039.53;5048952;28;20197;-81
2023/09/26 03:06:58;;;;;;;3.80;3.03;;;;;;;11.38;nan;100042.44;5050722;28;20201;-81
2023/09/26 03:09:25;;;;;;;3.00;2.80;;;;;;;11.30;nan;100046.34;5050565;28;20209;-81
2023/09/26 03:11:51;;;;;;;3.17;2.43;;;;;;;11.22;nan;100048.59;5055707;28;20197;-81
2023/09/26 03:14:19;;;;;;;7.00;3.50;;;;;;;11.18;nan;100052.34;5047853;28;20208;-81
2023/09/26 03:16:44;;;;;;;3.28;2.70;;;;;;;11.19;nan;100050.56;5043894;28;20543;-81
2023/09/26 03:19:10;;;;;;;3.55;2.67;;;;;;;11.23;nan;100039.78;5051880;28;20233;-81
2023/09/26 03:21:36;;;;;;;5.63;2.70;;;;;;;11.28;nan;100040.34;5031484;28;20311;-81
2023/09/26 03:24:02;;;;;;;3.00;2.43;;;;;;;11.35;nan;100037.34;5045707;28;20201;-80
2023/09/26 03:26:28;;;;;;;5.28;2.78;;;;;;;11.38;nan;100039.81;5023863;28;20482;-81
2023/09/26 03:28:54;;;;;;;4.60;2.90;;;;;;;11.39;nan;100029.16;5038811;28;20738;-81
2023/09/26 03:31:21;;;;;;;5.07;2.65;;;;;;;11.40;nan;100025.63;5029743;28;20209;-81
2023/09/26 03:33:48;;;;;;;4.23;2.97;;;;;;;11.42;nan;100026.38;5031847;28;20584;-81
2023/09/26 03:36:14;;;;;;;3.80;3.50;;;;;;;11.43;nan;100029.84;5045669;28;20431;-81
2023/09/26 03:38:39;;;;;;;5.97;2.70;;;;;;;11.45;nan;100028.81;5042031;28;20482;-81
2023/09/26 03:41:06;;;;;;;4.97;2.80;;;;;;;11.44;nan;100024.47;5042016;28;20210;-81
2023/09/26 03:43:32;;;;;;;3.55;2.28;;;;;;;11.37;nan;100032.81;5043239;28;20438;-81
2023/09/26 03:46:02;;;;;;;3.00;2.20;;;;;;;11.29;nan;100028.06;5041690;28;20216;-81
2023/09/26 03:48:29;;;;;;;3.40;2.70;;;;;;;11.24;nan;100030.09;5045576;28;20194;-81
2023/09/26 03:50:54;;;;;;;3.20;2.17;;;;;;;11.19;nan;100027.75;5038524;28;20575;-81
2023/09/26 03:53:20;;;;;;;2.30;2.10;;;;;;;11.18;nan;100033.94;5040900;28;20197;-81
2023/09/26 03:55:55;;;;;;;2.60;2.40;;;;;;;11.17;nan;100028.78;5042094;28;20190;-79
2023/09/26 03:58:21;;;;;;;3.75;2.95;;;;;;;11.17;nan;100032.25;5041876;28;20296;-80
2023/09/26 04:00:47;;;;;;;2.50;2.00;;;;;;;11.16;nan;100035.81;5048350;28;20740;-79
2023/09/26 04:03:13;;;;;;;2.15;1.95;;;;;;;11.13;nan;100053.56;5044081;28;20198;-79
2023/09/26 04:05:39;;;;;;;3.00;2.33;;;;;;;11.09;nan;100047.63;5042907;28;20262;-78
2023/09/26 04:08:05;;;;;;;2.45;1.98;;;;;;;11.05;nan;100048.75;5048697;28;20235;-78
2023/09/26 04:10:36;;;;;;;3.10;2.37;;;;;;;11.00;nan;100050.81;5046177;28;20705;-78
2023/09/26 04:13:01;;;;;;;5.30;2.20;;;;;;;10.98;nan;100048.25;5043183;28;20201;-78
2023/09/26 04:15:27;;;;;;;3.60;2.40;;;;;;;10.99;nan;100047.34;5042267;28;20215;-79
2023/09/26 04:17:52;;;;;;;4.43;3.03;;;;;;;11.02;nan;100048.94;5045096;28;20194;-78
2023/09/26 04:20:19;;;;;;;2.40;2.20;;;;;;;11.03;nan;100040.09;5043712;28;20433;-78
2023/09/26 04:22:46;;;;;;;5.65;2.80;;;;;;;11.02;nan;100041.06;5025552;28;20197;-78
2023/09/26 04:25:12;;;;;;;2.10;2.00;;;;;;;11.00;nan;100033.25;5044730;28;20686;-78
2023/09/26 04:27:37;;;;;;;9.50;2.90;;;;;;;10.98;nan;100029.00;5040674;28;20224;-78
2023/09/26 04:30:04;;;;;;;6.03;2.70;;;;;;;10.93;nan;100028.44;5048170;28;20459;-77
2023/09/26 04:32:30;;;;;;;3.60;3.30;;;;;;;10.90;nan;100029.44;5042640;28;20228;-78
2023/09/26 04:34:55;;;;;;;3.00;2.47;;;;;;;10.88;nan;100026.06;5047318;28;20813;-78
2023/09/26 04:37:21;;;;;;;7.30;2.80;;;;;;;10.83;nan;100025.50;5045127;28;20194;-78
2023/09/26 04:39:46;;;;;;;3.17;2.50;;;;;;;10.77;nan;100026.69;5050537;28;20249;-78
2023/09/26 04:42:11;;;;;;;2.90;2.70;;;;;;;10.74;nan;100020.75;5050227;28;20198;-78
2023/09/26 04:44:37;;;;;;;2.83;2.57;;;;;;;10.73;nan;100025.19;5047524;28;20209;-78
2023/09/26 04:47:02;;;;;;;5.90;2.43;;;;;;;10.70;nan;100020.09;5053632;28;20189;-78
2023/09/26 04:49:27;;;;;;;2.90;2.70;;;;;;;10.67;nan;100022.06;5050891;28;20319;-78
2023/09/26 04:51:53;;;;;;;4.73;2.50;;;;;;;10.62;nan;100015.28;5040908;28;20562;-78
2023/09/26 04:54:18;;;;;;;4.40;3.33;;;;;;;10.56;nan;100017.44;5044727;28;20197;-78
2023/09/26 04:56:43;;;;;;;5.43;2.50;;;;;;;10.49;nan;100008.19;5050031;28;20286;-78
2023/09/26 04:59:09;;;;;;;3.30;2.73;;;;;;;10.41;nan;100014.72;5050039;28;20210;-78
2023/09/26 05:01:36;;;;;;;4.27;2.70;;;;;;;10.38;nan;100030.66;5044016;28;20206;-78
2023/09/26 05:04:01;;;;;;;4.18;2.58;;;;;;;10.32;nan;100020.50;5042680;28;20238;-78
2023/09/26 05:06:29;;;;;;;3.50;3.20;;;;;;;10.28;nan;100018.97;5043553;28;20546;-78
2023/09/26 05:08:54;;;;;;;4.32;3.00;;;;;;;10.29;nan;100025.94;5027236;28;20197;-78
2023/09/26 05:11:20;;;;;;;4.50;3.40;;;;;;;10.34;nan;100023.91;5042551;28;20454;-78
2023/09/26 05:13:45;;;;;;;2.83;2.63;;;;;;;10.44;nan;100020.75;5039581;28;20201;-78
2023/09/26 05:16:13;;;;;;;3.60;2.50;;;;;;;10.52;nan;100026.41;5027079;28;20193;-78
2023/09/26 05:18:38;;;;;;;3.25;2.95;;;;;;;10.57;nan;100029.63;5049586;28;20839;-78
2023/09/26 05:21:08;;;;;;;3.10;2.80;;;;;;;10.60;nan;100034.69;5052204;28;20209;-78
2023/09/26 05:23:33;;;;;;;3.78;3.42;;;;;;;10.62;nan;100027.59;5044927;28;20202;-78
2023/09/26 05:26:10;;;;;;;3.07;2.80;;;;;;;10.63;nan;100031.88;5042956;28;20689;-78
2023/09/26 05:28:36;;;;;;;3.15;2.83;;;;;;;10.65;nan;100032.66;5045789;28;20228;-78
2023/09/26 05:31:01;;;;;;;3.87;2.97;;;;;;;10.70;nan;100025.38;5047094;28;20252;-78
2023/09/26 05:33:27;;;;;;;3.07;2.63;;;;;;;10.73;nan;100030.44;5041450;28;20194;-78
2023/09/26 05:35:53;;;;;;;5.10;3.03;;;;;;;10.72;nan;100030.50;5045590;28;20592;-78
2023/09/26 05:38:22;;;;;;;4.93;3.07;;;;;;;10.67;nan;100022.91;5047195;28;20308;-78
2023/09/26 05:40:50;;;;;;;5.30;3.65;;;;;;;10.63;nan;100032.72;5044022;28;20441;-78
2023/09/26 05:43:15;;;;;;;4.50;3.95;;;;;;;10.64;nan;100025.72;5044205;28;20177;-78
2023/09/26 05:45:40;;;;;;;10.23;4.70;;;;;;;10.61;nan;100031.13;5048533;28;20273;-78
2023/09/26 05:48:06;;;;;;;3.90;3.13;;;;;;;10.62;nan;100030.22;5042604;28;20525;-79
2023/09/26 05:50:31;;;;;;;3.60;3.30;;;;;;;10.66;nan;100033.50;5044907;28;20563;-79
2023/09/26 05:52:59;;;;;;;6.53;4.30;;;;;;;10.71;nan;100027.03;5046280;28;20218;-78
2023/09/26 05:55:25;;;;;;;6.45;3.55;;;;;;;10.79;nan;100035.31;5051374;28;20258;-81
2023/09/26 05:57:51;;;;;;;4.20;3.80;;;;;;;10.87;nan;100031.41;5048735;28;20181;-78
2023/09/26 06:00:17;;;;;;;4.93;3.53;;;;;;;10.92;nan;100034.63;5042002;28;20657;-77
2023/09/26 06:02:43;;;;;;;4.73;3.03;;;;;;;10.95;nan;100032.66;5049575;28;20429;-78
2023/09/26 06:05:09;;;;;;;3.40;3.07;;;;;;;11.01;nan;100034.91;5042805;28;20225;-77
2023/09/26 06:07:35;;;;;;;3.65;3.35;;;;;;;11.10;nan;100027.44;5027715;28;20450;-77
2023/09/26 06:10:00;;;;;;;3.83;3.33;;;;;;;11.15;nan;100031.50;5044282;28;20194;-77
2023/09/26 06:12:25;;;;;;;3.83;3.10;;;;;;;11.21;nan;100036.41;5045807;28;20540;-77
2023/09/26 06:14:51;;;;;;;5.80;4.03;;;;;;;11.23;nan;100033.66;5052547;28;20197;-77
2023/09/26 06:17:17;;;;;;;4.90;3.70;;;;;;;11.21;nan;100033.75;5048964;28;20569;-80
2023/09/26 06:19:46;;;;;;;4.93;3.20;;;;;;;11.23;nan;100031.91;5050765;28;20251;-78
2023/09/26 06:22:13;;;;;;;7.38;3.90;;;;;;;11.27;nan;100030.75;5047674;28;20429;-76
2023/09/26 06:24:39;;;;;;;4.30;3.40;;;;;;;11.34;nan;100033.88;5040495;28;20193;-78
2023/09/26 06:27:04;;;;;;;4.67;3.73;;;;;;;11.39;nan;100038.84;5045431;28;20205;-79
2023/09/26 06:29:29;;;;;;;7.63;4.90;;;;;;;11.46;nan;100032.28;5045280;28;20227;-78
2023/09/26 06:31:55;;;;;;;5.90;5.30;;;;;;;11.52;nan;100027.50;5046081;28;20246;-80
2023/09/26 06:34:20;;;;;;;5.10;4.70;;;;;;;11.59;nan;100030.59;5048501;28;20759;-79
2023/09/26 06:36:49;;;;;;;6.60;5.90;;;;;;;11.66;nan;100031.91;5045033;28;20193;-79
2023/09/26 06:39:15;;;;;;;7.03;4.95;;;;;;;11.74;nan;100034.91;5044803;28;20213;-78
2023/09/26 06:41:41;;;;;;;7.50;5.73;;;;;;;11.82;nan;100025.69;5040416;28;20221;-79
2023/09/26 06:44:09;;;;;;;7.18;5.72;;;;;;;11.90;nan;100039.25;5034693;28;20568;-80
2023/09/26 06:46:35;;;;;;;5.13;4.65;;;;;;;11.97;nan;100032.69;5039358;28;20224;-78
2023/09/26 06:49:00;;;;;;;6.57;5.87;;;;;;;12.03;nan;100039.34;5046082;28;20217;-78
2023/09/26 06:51:25;;;;;;;7.80;5.90;;;;;;;12.08;nan;100040.75;5046652;28;20210;-80
2023/09/26 06:53:51;;;;;;;10.00;6.30;;;;;;;12.16;nan;100041.13;5046472;28;20290;-78
2023/09/26 06:56:16;;;;;;;7.87;7.10;;;;;;;12.24;nan;100039.78;5044600;28;20299;-78
2023/09/26 06:58:41;;;;;;;7.60;6.80;;;;;;;12.33;nan;100039.19;5039468;28;20461;-78
2023/09/26 07:01:14;;;;;;;9.17;5.90;;;;;;;12.42;nan;100041.22;5039924;28;20689;-78
2023/09/26 07:03:41;;;;;;;7.80;6.07;;;;;;;12.52;nan;100044.13;5042769;28;20725;-80
2023/09/26 07:06:11;;;;;;;9.27;7.25;;;;;;;12.63;nan;100042.47;5046937;28;20402;-82
2023/09/26 07:08:43;;;;;;;6.78;6.15;;;;;;;12.73;nan;100047.16;5046564;28;20315;-79
2023/09/26 07:11:09;;;;;;;11.50;7.28;;;;;;;12.82;nan;100038.63;5044275;28;20205;-82
2023/09/26 07:13:34;;;;;;;7.18;6.40;;;;;;;12.91;nan;100038.03;5038907;28;20981;-78
2023/09/26 07:16:03;;;;;;;6.40;5.80;;;;;;;13.01;nan;100046.16;5043561;28;20274;-81
2023/09/26 07:18:30;;;;;;;8.63;6.35;;;;;;;13.10;nan;100047.38;5044165;28;20631;-79
2023/09/26 07:20:59;;;;;;;8.93;7.65;;;;;;;13.17;nan;100038.91;5040221;28;20212;-82
2023/09/26 07:23:25;;;;;;;6.22;5.55;;;;;;;13.23;nan;100046.44;5041157;28;20211;-79
2023/09/26 07:25:50;;;;;;;11.57;6.53;;;;;;;13.33;nan;100043.19;5044174;28;20662;-79
2023/09/26 07:28:16;;;;;;;9.40;6.37;;;;;;;13.40;nan;100039.19;5046495;28;20257;-82
2023/09/26 07:30:44;;;;;;;7.30;6.60;;;;;;;13.48;nan;100040.34;5042941;28;20220;-79
2023/09/26 07:33:09;;;;;;;7.90;6.88;;;;;;;13.59;nan;100042.25;5042089;28;20200;-80
2023/09/26 07:35:35;;;;;;;8.15;6.80;;;;;;;13.69;nan;100042.44;5044238;28;20401;-79
2023/09/26 07:38:01;;;;;;;8.23;6.83;;;;;;;13.76;nan;100049.00;5046701;28;20550;-79
2023/09/26 07:40:26;;;;;;;7.60;6.00;;;;;;;13.87;nan;100043.78;5042278;28;20787;-82
2023/09/26 07:42:52;;;;;;;9.77;6.77;;;;;;;13.97;nan;100045.81;5040143;28;20443;-79
2023/09/26 07:45:17;;;;;;;9.43;5.97;;;;;;;14.07;nan;100052.09;5041332;28;20200;-80
2023/09/26 07:47:44;;;;;;;8.70;6.17;;;;;;;14.22;nan;100047.53;5045737;28;20195;-81
2023/09/26 07:50:10;;;;;;;7.88;6.82;;;;;;;14.83;nan;100049.22;5024215;28;20232;-79
2023/09/26 07:52:37;;;;;;;9.07;6.32;;;;;;;15.85;nan;100041.50;5040973;28;20327;-79
2023/09/26 07:55:02;;;;;;;7.53;5.07;;;;;;;17.01;nan;100034.75;5041860;28;20209;-81
2023/09/26 07:57:28;;;;;;;5.77;5.10;;;;;;;18.10;nan;100032.53;5039774;28;20182;-80
2023/09/26 07:59:54;;;;;;;5.33;4.83;;;;;;;19.18;nan;100031.66;5044025;28;20224;-84
2023/09/26 08:02:20;;;;;;;5.90;4.43;;;;;;;20.15;nan;100027.84;5049167;28;20751;-82
2023/09/26 08:04:45;;;;;;;4.83;4.33;;;;;;;20.80;nan;100025.88;5043142;28;20501;-80
2023/09/26 08:07:12;;;;;;;4.47;4.07;;;;;;;21.63;nan;100026.34;5039357;28;20916;-81
2023/09/26 08:09:38;;;;;;;4.07;3.67;;;;;;;21.84;nan;100017.91;5042745;28;20254;-82
2023/09/26 08:12:04;;;;;;;4.30;3.83;;;;;;;21.79;nan;100022.06;5042752;28;20439;-80
2023/09/26 08:14:29;;;;;;;5.50;4.57;;;;;;;21.62;nan;100021.13;5038818;28;20451;-80
2023/09/26 08:16:55;;;;;;;5.83;4.80;;;;;;;21.58;nan;100014.44;5042017;28;20686;-84
2023/09/26 08:19:20;;;;;;;5.73;4.13;;;;;;;21.80;nan;100021.91;5044163;28;20198;-79
2023/09/26 08:21:46;;;;;;;4.00;3.63;;;;;;;22.15;nan;100014.69;5043672;28;20671;-80
2023/09/26 08:24:11;;;;;;;5.23;3.23;;;;;;;22.58;nan;100023.53;5040794;28;20296;-80
2023/09/26 08:26:36;;;;;;;3.33;2.70;;;;;;;23.22;nan;100020.19;5041099;28;20208;-80
2023/09/26 08:29:04;;;;;;;4.23;3.90;;;;;;;23.66;nan;100014.44;5040854;28;20201;-81
2023/09/26 08:31:30;;;;;;;4.20;3.80;;;;;;;23.93;nan;100014.03;5045467;28;20201;-82
2023/09/26 08:33:56;;;;;;;4.50;4.10;;;;;;;24.19;nan;100013.72;5041107;28;20878;-80
2023/09/26 08:36:21;;;;;;;3.83;3.53;;;;;;;24.49;nan;100006.69;5025541;28;20576;-81
2023/09/26 08:38:48;;;;;;;3.63;3.30;;;;;;;24.83;nan;99996.53;5038722;28;20273;-82
2023/09/26 08:41:15;;;;;;;4.40;3.00;;;;;;;25.03;nan;100002.25;5043484;28;20205;-80
2023/09/26 08:43:41;;;;;;;3.20;2.90;;;;;;;25.25;nan;100005.91;5042137;28;20689;-80
2023/09/26 08:46:07;;;;;;;3.50;3.20;;;;;;;25.28;nan;99997.50;5044085;28;20858;-82
2023/09/26 08:48:34;;;;;;;4.53;3.70;;;;;;;25.27;nan;100001.19;5043604;28;20886;-81
2023/09/26 08:51:00;;;;;;;4.40;4.00;;;;;;;25.30;nan;99995.47;5047088;28;20196;-83
2023/09/26 08:53:25;;;;;;;3.73;3.43;;;;;;;25.47;nan;99990.75;5039077;28;20823;-79
2023/09/26 08:55:51;;;;;;;4.10;3.80;;;;;;;25.67;nan;99997.25;5051392;28;20640;-83
2023/09/26 08:58:18;;;;;;;3.23;2.93;;;;;;;25.75;nan;99994.44;5046609;28;21032;-83
2023/09/26 09:00:43;;;;;;;5.27;4.30;;;;;;;25.56;nan;99990.47;5045240;28;20212;-82
2023/09/26 09:03:09;;;;;;;3.67;2.90;;;;;;;25.16;nan;99989.03;5043887;28;20460;-83
2023/09/26 09:05:34;;;;;;;3.73;3.23;;;;;;;24.97;nan;99989.53;5043757;28;20648;-83
2023/09/26 09:08:00;;;;;;;3.83;2.93;;;;;;;24.69;nan;99984.72;5041240;28;20690;-80
2023/09/26 09:10:25;;;;;;;3.20;2.73;;;;;;;24.36;nan;99987.63;5042971;28;20781;-80
2023/09/26 09:13:01;;;;;;;4.13;3.30;;;;;;;24.12;nan;99983.22;5046327;28;20205;-82
2023/09/26 09:15:28;;;;;;;2.83;2.60;;;;;;;23.87;nan;99987.88;5047049;28;20211;-81
2023/09/26 09:17:53;;;;;;;3.70;2.87;;;;;;;23.64;nan;99982.41;5040343;28;20482;-81
2023/09/26 09:20:33;;;;;;;3.33;3.03;;;;;;;23.36;nan;99984.69;5042243;28;20871;-81
2023/09/26 09:23:05;;;;;;;4.13;2.97;;;;;;;23.03;nan;99994.59;5049271;28;20186;-83
2023/09/26 09:25:36;;;;;;;3.80;3.03;;;;;;;22.63;nan;99988.19;5044542;28;20464;-81
2023/09/26 09:28:04;;;;;;;3.10;2.80;;;;;;;22.45;nan;99985.69;5044906;28;21014;-81
2023/09/26 09:30:37;;;;;;;4.30;3.70;;;;;;;22.41;nan;99987.00;5042584;28;20479;-80
2023/09/26 09:33:03;;;;;;;3.00;2.70;;;;;;;22.43;nan;99985.84;5046837;28;20441;-80
2023/09/26 09:35:29;;;;;;;5.30;2.77;;;;;;;22.43;nan;99982.31;5046680;28;20491;-81
2023/09/26 09:37:56;;;;;;;3.20;2.87;;;;;;;22.39;nan;99975.66;5046176;28;20203;-80
2023/09/26 09:40:24;;;;;;;3.33;3.03;;;;;;;22.31;nan;99979.13;5050645;28;20503;-80
2023/09/26 09:42:51;;;;;;;3.17;2.87;;;;;;;22.38;nan;99980.13;5046147;28;20546;-81
2023/09/26 09:45:19;;;;;;;3.30;3.00;;;;;;;22.38;nan;99965.94;5051002;28;20446;-79
2023/09/26 09:47:47;;;;;;;2.93;2.47;;;;;;;22.34;nan;99967.28;5047175;28;20459;-81
2023/09/26 09:50:13;;;;;;;3.80;2.90;;;;;;;22.34;nan;99964.59;5054456;28;20431;-80
2023/09/26 09:52:43;;;;;;;2.70;2.40;;;;;;;22.28;nan;99958.06;5050985;28;20991;-81
2023/09/26 09:55:16;;;;;;;3.80;2.40;;;;;;;22.14;nan;99956.81;5051029;28;20436;-79
2023/09/26 09:57:46;;;;;;;3.20;2.90;;;;;;;22.29;nan;99957.06;5051815;28;20729;-78
2023/09/26 10:00:14;;;;;;;5.07;2.93;;;;;;;22.49;nan;99944.19;5048153;28;20916;-79
2023/09/26 10:02:40;;;;;;;5.00;2.90;;;;;;;22.60;nan;99941.19;5050243;28;20432;-79
2023/09/26 10:05:12;;;;;;;2.60;2.40;;;;;;;22.78;nan;99940.19;5024396;28;20429;-79
2023/09/26 10:07:39;;;;;;;3.83;2.60;;;;;;;22.90;nan;99934.31;5049076;28;20500;-79
2023/09/26 10:10:09;;;;;;;4.33;3.00;;;;;;;22.88;nan;99932.81;5045579;28;20201;-80
2023/09/26 10:12:36;;;;;;;2.30;2.07;;;;;;;22.96;nan;99930.16;5026060;28;21234;-80
2023/09/26 10:15:02;;;;;;;3.30;2.60;;;;;;;22.96;nan;99928.31;5048437;28;20908;-78
2023/09/26 10:17:28;;;;;;;3.43;2.70;;;;;;;22.89;nan;99929.13;5048520;28;20463;-79
2023/09/26 10:19:54;;;;;;;2.80;2.20;;;;;;;22.92;nan;99924.25;5047262;28;20277;-78
2023/09/26 10:22:20;;;;;;;2.27;2.07;;;;;;;23.03;nan;99923.09;5046618;28;20204;-79
2023/09/26 10:24:51;;;;;;;4.83;2.40;;;;;;;23.21;nan;99922.06;5046999;28;20438;-79
2023/09/26 10:27:35;;;;;;;2.50;2.30;;;;;;;23.32;nan;99921.69;5049786;28;20439;-79
2023/09/26 10:30:01;;;;;;;2.53;2.33;;;;;;;23.29;nan;99922.88;5048410;28;20427;-78
2023/09/26 10:32:32;;;;;;;2.93;2.10;;;;;;;23.27;nan;99914.16;5048946;28;20455;-80
2023/09/26 10:34:59;;;;;;;3.13;2.17;;;;;;;23.35;nan;99916.81;5050015;28;20221;-78
2023/09/26 10:37:27;;;;;;;2.60;2.40;;;;;;;23.46;nan;99912.91;5047881;28;20795;-79
2023/09/26 10:39:56;;;;;;;4.40;2.37;;;;;;;23.56;nan;99910.88;5051712;28;20457;-80
2023/09/26 10:42:24;;;;;;;2.80;2.20;;;;;;;23.69;nan;99906.81;5052257;28;20431;-80
2023/09/26 10:44:50;;;;;;;3.00;2.60;;;;;;;23.70;nan;99900.41;5052038;28;20267;-77
2023/09/26 10:47:17;;;;;;;3.10;2.40;;;;;;;23.69;nan;99899.59;5043878;28;20434;-80
2023/09/26 10:49:44;;;;;;;3.77;2.17;;;;;;;23.72;nan;99890.38;5052924;28;20785;-78
2023/09/26 10:52:10;;;;;;;5.53;2.53;;;;;;;23.75;nan;99893.53;5055299;28;20448;-77
2023/09/26 10:54:37;;;;;;;4.80;3.37;;;;;;;23.80;nan;99895.72;5052198;28;20515;-79
2023/09/26 10:57:03;;;;;;;3.33;2.70;;;;;;;23.79;nan;99894.88;5048081;28;20508;-80
2023/09/26 10:59:30;;;;;;;2.97;2.07;;;;;;;23.80;nan;99898.38;5049624;28;20464;-78
2023/09/26 11:02:01;;;;;;;2.93;2.50;;;;;;;23.75;nan;99898.06;5046685;28;20943;-79
2023/09/26 11:04:28;;;;;;;1.90;1.70;;;;;;;23.70;nan;99897.72;5045535;28;20622;-78
2023/09/26 11:07:02;;;;;;;2.10;1.90;;;;;;;23.68;nan;99889.84;5055233;28;20468;-80
2023/09/26 11:09:28;;;;;;;2.30;1.87;;;;;;;23.71;nan;99889.56;5053306;28;20626;-79
2023/09/26 11:11:56;;;;;;;3.50;2.60;;;;;;;23.71;nan;99894.03;5050380;28;20494;-79
2023/09/26 11:14:23;;;;;;;2.33;1.63;;;;;;;23.66;nan;99888.38;5039096;28;20190;-79
2023/09/26 11:16:49;;;;;;;2.67;1.70;;;;;;;23.65;nan;99895.56;5050109;28;20433;-80
2023/09/26 11:19:15;;;;;;;2.80;2.10;;;;;;;23.61;nan;99884.38;5055565;28;20472;-81
2023/09/26 11:21:40;;;;;;;2.50;2.30;;;;;;;23.61;nan;99889.72;5049993;28;20444;-79
2023/09/26 11:24:27;;;;;;;3.37;1.70;;;;;;;23.54;nan;99880.69;5049649;28;20853;-80
2023/09/26 11:26:55;;;;;;;4.23;1.90;;;;;;;23.39;nan;99880.63;5048105;28;20194;-81
2023/09/26 11:29:23;;;;;;;3.57;2.07;;;;;;;23.37;nan;99876.44;5044398;28;20460;-78
2023/09/26 11:31:50;;;;;;;5.23;2.20;;;;;;;23.43;nan;99875.72;5046787;28;20494;-80
2023/09/26 11:34:19;;;;;;;1.57;1.47;;;;;;;23.42;nan;99871.41;5046512;28;20802;-79
2023/09/26 11:36:47;;;;;;;2.00;1.40;;;;;;;23.41;nan;99867.03;5039910;28;20440;-79
2023/09/26 11:39:16;;;;;;;2.60;1.90;;;;;;;23.38;nan;99868.19;5049647;28;20666;-80
2023/09/26 11:41:41;;;;;;;2.80;1.80;;;;;;;23.33;nan;99869.72;5050247;28;21482;-79